Liverpool, West Virginia
Current Conditions -  °F | °C
As of 2:53 PM on Monday 22 Dec 2014 (Local Time) from KPKB Reporting Station
Clear Clear  
Wind Chill: 53°   Ceiling: Unl
Heat Index: 53°   Visibility: 10mi
Dew Point: 35°   Wind: 6mph
Humidity: 50%   Direction: 100°E
Pressure: 29.95"   Gusts: NA
Location:  38.9557°N, 81.5714°W
Report Text: KPKB 221953Z 10005KT 10SM CLR 12/02 A2995 RMK AO2 SLP146 T01170017
Loading
Personal Weather Stations






























Interactive Weather Map New forecast layout! Learn more

10-Day Weather Forecast

Advertisements
Track Severe Weather on mobile